| State | Missouri | Latest | Low (644 cfs) | |
| River | Saint Francis River | Rating | Observed | Estimated |
| Updated | 2026-05-07 4:00 (23 minutes ago) | Flood - The river is flooding. Obstacles can be treacherous or deadly. The river should be avoided at this stage for casual trips and definitely for the inexperienced. Trips should be attempted only with protective gear and equipment.Flood | (none) | 4333 |
| Discharge | 644 cfs (median: 964 cfs) | High - The river is high and potentially dangerous, especially for the young and / or inexperienced. Normal stream obstacles are sometimes difficult to navigate. Extended distances can be attempted, but canoe travel may not be advisable.High | (none) | 793 |
| Height | 5.91 feet | Good - Conditions are ideal for a canoe or kayak. Boats typically will drag on fewer than one-quarter of riffles, if at all, and portages are unnecessary or rare. Normal float lengths can be attempted without a problem.Good | 2000 | 285 |
| Trend | Steady (falling over 24 hours) | Low - River is low but can still be floated. Some riffles are okay but most come with significant dragging and might need a portage. Float lengths should be reduced to accommodate low flow, dragging, and portages.Low | (none) | 126 |
| USGS | USGS Site ( Duck Duck Go Maps) | Poor - River is too low to float comfortably. Most or all riffles will drag or must be portaged and some obstacles (such as slick shelf rock) cause undue problems. Avoid the river at this stage for casual paddling trips.Poor | (none) | 28 |
A total of 2 rows are displayed.
| Miles | 3.3 |
| Trips | 2 |
| People | 3 |
| Dates | 2 |
| Years | 2 |
| Months | 2 |
| Rows | 2 |
| Sources | 2 |
BLG - Bluegill
CCF - Channel Catfish
CP - Chain Pickerel
FWD - Freshwater Drum
GSF - Green Sunfish
KSB - Kentucky Spotted Bass
LMB - Largemouth Bass
LSF - Longear Sunfish
RB - Rock Bass / Goggle Eye
RSF - Redear Sunfish
RT - Rainbow Trout
SMB - Smallmouth Bass
WB - White Bass
WF - Whitefish
WL - WalleyeThe classic River Trips application is still available for use. It is updated with the new system using a data retrofit. It is no longer maintained. The original River Trips application is no longer updated (as of 1 Dec 2016) but can be checked for errors or for the condition of the data before it was converted to the new system.
| Observation | Height | Discharge | Maximum Discharge | Minimum Discharge | Mean Discharge | P05 | P10 | P20 | P25 | P50 (Median) | P75 | P80 | P90 | P95 |
|---|---|---|---|---|---|---|---|---|---|---|---|---|---|---|
| 2026-05-07 04:00 | 5.91 | 644 | 25000 (1961) | 162 (1981) | 2210 | 217 | 273 | 344 | 379 | 964 | 2240 | 2770 | 5250 | 9130 |
| 2026-05-07 03:30 | 5.91 | 644 | 25000 (1961) | 162 (1981) | 2210 | 217 | 273 | 344 | 379 | 964 | 2240 | 2770 | 5250 | 9130 |
| 2026-05-07 03:00 | 5.91 | 644 | 25000 (1961) | 162 (1981) | 2210 | 217 | 273 | 344 | 379 | 964 | 2240 | 2770 | 5250 | 9130 |
| 2026-05-07 02:30 | 5.92 | 648 | 25000 (1961) | 162 (1981) | 2210 | 217 | 273 | 344 | 379 | 964 | 2240 | 2770 | 5250 | 9130 |
| 2026-05-07 02:00 | 5.92 | 648 | 25000 (1961) | 162 (1981) | 2210 | 217 | 273 | 344 | 379 | 964 | 2240 | 2770 | 5250 | 9130 |
| 2026-05-07 01:30 | 5.92 | 648 | 25000 (1961) | 162 (1981) | 2210 | 217 | 273 | 344 | 379 | 964 | 2240 | 2770 | 5250 | 9130 |
| 2026-05-07 01:00 | 5.92 | 648 | 25000 (1961) | 162 (1981) | 2210 | 217 | 273 | 344 | 379 | 964 | 2240 | 2770 | 5250 | 9130 |
| 2026-05-07 00:30 | 5.92 | 648 | 25000 (1961) | 162 (1981) | 2210 | 217 | 273 | 344 | 379 | 964 | 2240 | 2770 | 5250 | 9130 |
| 2026-05-07 00:00 | 5.93 | 653 | 25000 (1961) | 162 (1981) | 2210 | 217 | 273 | 344 | 379 | 964 | 2240 | 2770 | 5250 | 9130 |
| 2026-05-06 23:30 | 5.93 | 653 | 25000 (1961) | 162 (1981) | 2210 | 217 | 273 | 344 | 379 | 964 | 2240 | 2770 | 5250 | 9130 |
| 2026-05-06 23:00 | 5.93 | 653 | 25000 (1961) | 162 (1981) | 2210 | 217 | 273 | 344 | 379 | 964 | 2240 | 2770 | 5250 | 9130 |
| 2026-05-06 22:30 | 5.93 | 653 | 17600 (1929) | 163 (1981) | 2090 | 218 | 269 | 346 | 428 | 1080 | 2260 | 3270 | 4950 | 9580 |
| 2026-05-06 22:00 | 5.93 | 653 | 17600 (1929) | 163 (1981) | 2090 | 218 | 269 | 346 | 428 | 1080 | 2260 | 3270 | 4950 | 9580 |
| 2026-05-06 21:30 | 5.93 | 653 | 17600 (1929) | 163 (1981) | 2090 | 218 | 269 | 346 | 428 | 1080 | 2260 | 3270 | 4950 | 9580 |
| 2026-05-06 21:00 | 5.94 | 657 | 17600 (1929) | 163 (1981) | 2090 | 218 | 269 | 346 | 428 | 1080 | 2260 | 3270 | 4950 | 9580 |
| 2026-05-06 20:30 | 5.94 | 657 | 17600 (1929) | 163 (1981) | 2090 | 218 | 269 | 346 | 428 | 1080 | 2260 | 3270 | 4950 | 9580 |
| 2026-05-06 20:00 | 5.94 | 657 | 17600 (1929) | 163 (1981) | 2090 | 218 | 269 | 346 | 428 | 1080 | 2260 | 3270 | 4950 | 9580 |
| 2026-05-06 19:30 | 5.94 | 657 | 17600 (1929) | 163 (1981) | 2090 | 218 | 269 | 346 | 428 | 1080 | 2260 | 3270 | 4950 | 9580 |
| 2026-05-06 19:00 | 5.95 | 662 | 17600 (1929) | 163 (1981) | 2090 | 218 | 269 | 346 | 428 | 1080 | 2260 | 3270 | 4950 | 9580 |
| 2026-05-06 18:30 | 5.95 | 662 | 17600 (1929) | 163 (1981) | 2090 | 218 | 269 | 346 | 428 | 1080 | 2260 | 3270 | 4950 | 9580 |
| 2026-05-06 18:00 | 5.93 | 653 | 17600 (1929) | 163 (1981) | 2090 | 218 | 269 | 346 | 428 | 1080 | 2260 | 3270 | 4950 | 9580 |
| 2026-05-06 17:30 | 5.93 | 653 | 17600 (1929) | 163 (1981) | 2090 | 218 | 269 | 346 | 428 | 1080 | 2260 | 3270 | 4950 | 9580 |
| 2026-05-06 17:00 | 5.97 | 671 | 17600 (1929) | 163 (1981) | 2090 | 218 | 269 | 346 | 428 | 1080 | 2260 | 3270 | 4950 | 9580 |
| 2026-05-06 16:30 | 5.96 | 666 | 17600 (1929) | 163 (1981) | 2090 | 218 | 269 | 346 | 428 | 1080 | 2260 | 3270 | 4950 | 9580 |
| 2026-05-06 16:00 | 5.97 | 671 | 17600 (1929) | 163 (1981) | 2090 | 218 | 269 | 346 | 428 | 1080 | 2260 | 3270 | 4950 | 9580 |
| 2026-05-06 15:30 | 5.97 | 671 | 17600 (1929) | 163 (1981) | 2090 | 218 | 269 | 346 | 428 | 1080 | 2260 | 3270 | 4950 | 9580 |
| 2026-05-06 15:00 | 5.96 | 666 | 17600 (1929) | 163 (1981) | 2090 | 218 | 269 | 346 | 428 | 1080 | 2260 | 3270 | 4950 | 9580 |
| 2026-05-06 14:30 | 5.94 | 657 | 17600 (1929) | 163 (1981) | 2090 | 218 | 269 | 346 | 428 | 1080 | 2260 | 3270 | 4950 | 9580 |
| 2026-05-06 14:00 | 5.97 | 671 | 17600 (1929) | 163 (1981) | 2090 | 218 | 269 | 346 | 428 | 1080 | 2260 | 3270 | 4950 | 9580 |
| 2026-05-06 13:30 | 5.96 | 666 | 17600 (1929) | 163 (1981) | 2090 | 218 | 269 | 346 | 428 | 1080 | 2260 | 3270 | 4950 | 9580 |
| 2026-05-06 13:00 | 5.98 | 676 | 17600 (1929) | 163 (1981) | 2090 | 218 | 269 | 346 | 428 | 1080 | 2260 | 3270 | 4950 | 9580 |
| 2026-05-06 12:30 | 5.97 | 671 | 17600 (1929) | 163 (1981) | 2090 | 218 | 269 | 346 | 428 | 1080 | 2260 | 3270 | 4950 | 9580 |
| 2026-05-06 12:00 | 5.98 | 676 | 17600 (1929) | 163 (1981) | 2090 | 218 | 269 | 346 | 428 | 1080 | 2260 | 3270 | 4950 | 9580 |
| 2026-05-06 11:30 | 5.97 | 671 | 17600 (1929) | 163 (1981) | 2090 | 218 | 269 | 346 | 428 | 1080 | 2260 | 3270 | 4950 | 9580 |
| 2026-05-06 11:00 | 5.99 | 680 | 17600 (1929) | 163 (1981) | 2090 | 218 | 269 | 346 | 428 | 1080 | 2260 | 3270 | 4950 | 9580 |
| 2026-05-06 10:30 | 5.99 | 680 | 17600 (1929) | 163 (1981) | 2090 | 218 | 269 | 346 | 428 | 1080 | 2260 | 3270 | 4950 | 9580 |
| 2026-05-06 10:00 | 5.99 | 680 | 17600 (1929) | 163 (1981) | 2090 | 218 | 269 | 346 | 428 | 1080 | 2260 | 3270 | 4950 | 9580 |
| 2026-05-06 09:30 | 6.00 | 685 | 17600 (1929) | 163 (1981) | 2090 | 218 | 269 | 346 | 428 | 1080 | 2260 | 3270 | 4950 | 9580 |
| 2026-05-06 09:00 | 5.99 | 680 | 17600 (1929) | 163 (1981) | 2090 | 218 | 269 | 346 | 428 | 1080 | 2260 | 3270 | 4950 | 9580 |
| 2026-05-06 08:30 | 6.00 | 685 | 17600 (1929) | 163 (1981) | 2090 | 218 | 269 | 346 | 428 | 1080 | 2260 | 3270 | 4950 | 9580 |
| 2026-05-06 08:00 | 6.00 | 685 | 17600 (1929) | 163 (1981) | 2090 | 218 | 269 | 346 | 428 | 1080 | 2260 | 3270 | 4950 | 9580 |
| 2026-05-06 07:30 | 5.99 | 680 | 17600 (1929) | 163 (1981) | 2090 | 218 | 269 | 346 | 428 | 1080 | 2260 | 3270 | 4950 | 9580 |
| 2026-05-06 07:00 | 5.99 | 680 | 17600 (1929) | 163 (1981) | 2090 | 218 | 269 | 346 | 428 | 1080 | 2260 | 3270 | 4950 | 9580 |
| 2026-05-06 06:30 | 5.99 | 680 | 17600 (1929) | 163 (1981) | 2090 | 218 | 269 | 346 | 428 | 1080 | 2260 | 3270 | 4950 | 9580 |
| 2026-05-06 06:00 | 5.99 | 680 | 17600 (1929) | 163 (1981) | 2090 | 218 | 269 | 346 | 428 | 1080 | 2260 | 3270 | 4950 | 9580 |
| 2026-05-06 05:30 | 6.00 | 685 | 17600 (1929) | 163 (1981) | 2090 | 218 | 269 | 346 | 428 | 1080 | 2260 | 3270 | 4950 | 9580 |
| 2026-05-06 05:00 | 6.00 | 685 | 17600 (1929) | 163 (1981) | 2090 | 218 | 269 | 346 | 428 | 1080 | 2260 | 3270 | 4950 | 9580 |
| 2026-05-06 04:30 | 6.00 | 685 | 17600 (1929) | 163 (1981) | 2090 | 218 | 269 | 346 | 428 | 1080 | 2260 | 3270 | 4950 | 9580 |
| 2026-05-06 04:00 | 6.00 | 685 | 17600 (1929) | 163 (1981) | 2090 | 218 | 269 | 346 | 428 | 1080 | 2260 | 3270 | 4950 | 9580 |
| 2026-05-06 03:30 | 6.00 | 685 | 17600 (1929) | 163 (1981) | 2090 | 218 | 269 | 346 | 428 | 1080 | 2260 | 3270 | 4950 | 9580 |
| 2026-05-06 03:00 | 6.00 | 685 | 17600 (1929) | 163 (1981) | 2090 | 218 | 269 | 346 | 428 | 1080 | 2260 | 3270 | 4950 | 9580 |
| 2026-05-06 02:30 | 5.99 | 680 | 17600 (1929) | 163 (1981) | 2090 | 218 | 269 | 346 | 428 | 1080 | 2260 | 3270 | 4950 | 9580 |
| 2026-05-06 02:00 | 5.98 | 676 | 17600 (1929) | 163 (1981) | 2090 | 218 | 269 | 346 | 428 | 1080 | 2260 | 3270 | 4950 | 9580 |
| 2026-05-06 01:30 | 5.97 | 671 | 17600 (1929) | 163 (1981) | 2090 | 218 | 269 | 346 | 428 | 1080 | 2260 | 3270 | 4950 | 9580 |
| 2026-05-06 01:00 | 5.94 | 657 | 17600 (1929) | 163 (1981) | 2090 | 218 | 269 | 346 | 428 | 1080 | 2260 | 3270 | 4950 | 9580 |
| 2026-05-06 00:30 | 5.97 | 671 | 17600 (1929) | 163 (1981) | 2090 | 218 | 269 | 346 | 428 | 1080 | 2260 | 3270 | 4950 | 9580 |
| 2026-05-06 00:00 | 5.97 | 671 | 17600 (1929) | 163 (1981) | 2090 | 218 | 269 | 346 | 428 | 1080 | 2260 | 3270 | 4950 | 9580 |
| 2026-05-05 23:30 | 5.93 | 653 | 17600 (1929) | 163 (1981) | 2090 | 218 | 269 | 346 | 428 | 1080 | 2260 | 3270 | 4950 | 9580 |
| 2026-05-05 23:00 | 5.94 | 657 | 17600 (1929) | 163 (1981) | 2090 | 218 | 269 | 346 | 428 | 1080 | 2260 | 3270 | 4950 | 9580 |
| 2026-05-05 22:30 | 5.93 | 653 | 20900 (2017) | 170 (1981) | 2260 | 228 | 284 | 361 | 448 | 1070 | 2220 | 2610 | 5840 | 10000 |
| 2026-05-05 22:00 | 5.89 | 635 | 20900 (2017) | 170 (1981) | 2260 | 228 | 284 | 361 | 448 | 1070 | 2220 | 2610 | 5840 | 10000 |
| 2026-05-05 21:30 | 5.93 | 653 | 20900 (2017) | 170 (1981) | 2260 | 228 | 284 | 361 | 448 | 1070 | 2220 | 2610 | 5840 | 10000 |
| 2026-05-05 21:00 | 5.93 | 653 | 20900 (2017) | 170 (1981) | 2260 | 228 | 284 | 361 | 448 | 1070 | 2220 | 2610 | 5840 | 10000 |
| 2026-05-05 20:30 | 5.93 | 653 | 20900 (2017) | 170 (1981) | 2260 | 228 | 284 | 361 | 448 | 1070 | 2220 | 2610 | 5840 | 10000 |
| 2026-05-05 20:00 | 5.94 | 657 | 20900 (2017) | 170 (1981) | 2260 | 228 | 284 | 361 | 448 | 1070 | 2220 | 2610 | 5840 | 10000 |
| 2026-05-05 19:30 | 5.94 | 657 | 20900 (2017) | 170 (1981) | 2260 | 228 | 284 | 361 | 448 | 1070 | 2220 | 2610 | 5840 | 10000 |
| 2026-05-05 19:00 | 5.94 | 657 | 20900 (2017) | 170 (1981) | 2260 | 228 | 284 | 361 | 448 | 1070 | 2220 | 2610 | 5840 | 10000 |
| 2026-05-05 18:30 | 5.94 | 657 | 20900 (2017) | 170 (1981) | 2260 | 228 | 284 | 361 | 448 | 1070 | 2220 | 2610 | 5840 | 10000 |
| 2026-05-05 18:00 | 5.94 | 657 | 20900 (2017) | 170 (1981) | 2260 | 228 | 284 | 361 | 448 | 1070 | 2220 | 2610 | 5840 | 10000 |
| 2026-05-05 17:30 | 5.94 | 657 | 20900 (2017) | 170 (1981) | 2260 | 228 | 284 | 361 | 448 | 1070 | 2220 | 2610 | 5840 | 10000 |
| 2026-05-05 17:00 | 5.91 | 644 | 20900 (2017) | 170 (1981) | 2260 | 228 | 284 | 361 | 448 | 1070 | 2220 | 2610 | 5840 | 10000 |
| 2026-05-05 16:30 | 5.93 | 653 | 20900 (2017) | 170 (1981) | 2260 | 228 | 284 | 361 | 448 | 1070 | 2220 | 2610 | 5840 | 10000 |
| 2026-05-05 16:00 | 5.95 | 662 | 20900 (2017) | 170 (1981) | 2260 | 228 | 284 | 361 | 448 | 1070 | 2220 | 2610 | 5840 | 10000 |
| 2026-05-05 15:30 | 5.95 | 662 | 20900 (2017) | 170 (1981) | 2260 | 228 | 284 | 361 | 448 | 1070 | 2220 | 2610 | 5840 | 10000 |
| 2026-05-05 15:00 | 5.94 | 657 | 20900 (2017) | 170 (1981) | 2260 | 228 | 284 | 361 | 448 | 1070 | 2220 | 2610 | 5840 | 10000 |
| 2026-05-05 14:30 | 5.95 | 662 | 20900 (2017) | 170 (1981) | 2260 | 228 | 284 | 361 | 448 | 1070 | 2220 | 2610 | 5840 | 10000 |
| 2026-05-05 14:00 | 5.94 | 657 | 20900 (2017) | 170 (1981) | 2260 | 228 | 284 | 361 | 448 | 1070 | 2220 | 2610 | 5840 | 10000 |
| 2026-05-05 13:30 | 5.95 | 662 | 20900 (2017) | 170 (1981) | 2260 | 228 | 284 | 361 | 448 | 1070 | 2220 | 2610 | 5840 | 10000 |
| 2026-05-05 13:00 | 5.93 | 653 | 20900 (2017) | 170 (1981) | 2260 | 228 | 284 | 361 | 448 | 1070 | 2220 | 2610 | 5840 | 10000 |
| 2026-05-05 12:30 | 5.95 | 662 | 20900 (2017) | 170 (1981) | 2260 | 228 | 284 | 361 | 448 | 1070 | 2220 | 2610 | 5840 | 10000 |
| 2026-05-05 12:00 | 5.95 | 662 | 20900 (2017) | 170 (1981) | 2260 | 228 | 284 | 361 | 448 | 1070 | 2220 | 2610 | 5840 | 10000 |
| 2026-05-05 11:30 | 5.96 | 666 | 20900 (2017) | 170 (1981) | 2260 | 228 | 284 | 361 | 448 | 1070 | 2220 | 2610 | 5840 | 10000 |
| 2026-05-05 11:00 | 5.96 | 666 | 20900 (2017) | 170 (1981) | 2260 | 228 | 284 | 361 | 448 | 1070 | 2220 | 2610 | 5840 | 10000 |
| 2026-05-05 10:30 | 5.96 | 666 | 20900 (2017) | 170 (1981) | 2260 | 228 | 284 | 361 | 448 | 1070 | 2220 | 2610 | 5840 | 10000 |
| 2026-05-05 10:00 | 5.96 | 666 | 20900 (2017) | 170 (1981) | 2260 | 228 | 284 | 361 | 448 | 1070 | 2220 | 2610 | 5840 | 10000 |
| 2026-05-05 09:30 | 5.97 | 671 | 20900 (2017) | 170 (1981) | 2260 | 228 | 284 | 361 | 448 | 1070 | 2220 | 2610 | 5840 | 10000 |
| 2026-05-05 09:00 | 5.97 | 671 | 20900 (2017) | 170 (1981) | 2260 | 228 | 284 | 361 | 448 | 1070 | 2220 | 2610 | 5840 | 10000 |
| 2026-05-05 08:30 | 5.97 | 671 | 20900 (2017) | 170 (1981) | 2260 | 228 | 284 | 361 | 448 | 1070 | 2220 | 2610 | 5840 | 10000 |
| 2026-05-05 08:00 | 5.97 | 671 | 20900 (2017) | 170 (1981) | 2260 | 228 | 284 | 361 | 448 | 1070 | 2220 | 2610 | 5840 | 10000 |
| 2026-05-05 07:30 | 5.98 | 676 | 20900 (2017) | 170 (1981) | 2260 | 228 | 284 | 361 | 448 | 1070 | 2220 | 2610 | 5840 | 10000 |
| 2026-05-05 07:00 | 5.97 | 671 | 20900 (2017) | 170 (1981) | 2260 | 228 | 284 | 361 | 448 | 1070 | 2220 | 2610 | 5840 | 10000 |
| 2026-05-05 06:30 | 5.96 | 666 | 20900 (2017) | 170 (1981) | 2260 | 228 | 284 | 361 | 448 | 1070 | 2220 | 2610 | 5840 | 10000 |
| 2026-05-05 06:00 | 5.98 | 676 | 20900 (2017) | 170 (1981) | 2260 | 228 | 284 | 361 | 448 | 1070 | 2220 | 2610 | 5840 | 10000 |
| 2026-05-05 05:30 | 5.98 | 676 | 20900 (2017) | 170 (1981) | 2260 | 228 | 284 | 361 | 448 | 1070 | 2220 | 2610 | 5840 | 10000 |
| 2026-05-05 05:00 | 5.98 | 676 | 20900 (2017) | 170 (1981) | 2260 | 228 | 284 | 361 | 448 | 1070 | 2220 | 2610 | 5840 | 10000 |
| 2026-05-05 04:30 | 5.99 | 680 | 20900 (2017) | 170 (1981) | 2260 | 228 | 284 | 361 | 448 | 1070 | 2220 | 2610 | 5840 | 10000 |
| 2026-05-05 04:00 | 5.99 | 680 | 20900 (2017) | 170 (1981) | 2260 | 228 | 284 | 361 | 448 | 1070 | 2220 | 2610 | 5840 | 10000 |
| 2026-05-05 03:30 | 5.99 | 680 | 20900 (2017) | 170 (1981) | 2260 | 228 | 284 | 361 | 448 | 1070 | 2220 | 2610 | 5840 | 10000 |
| 2026-05-05 03:00 | 5.99 | 680 | 20900 (2017) | 170 (1981) | 2260 | 228 | 284 | 361 | 448 | 1070 | 2220 | 2610 | 5840 | 10000 |
| 2026-05-05 02:30 | 6.00 | 685 | 20900 (2017) | 170 (1981) | 2260 | 228 | 284 | 361 | 448 | 1070 | 2220 | 2610 | 5840 | 10000 |
| 2026-05-05 02:00 | 6.00 | 685 | 20900 (2017) | 170 (1981) | 2260 | 228 | 284 | 361 | 448 | 1070 | 2220 | 2610 | 5840 | 10000 |
| 2026-05-05 01:30 | 6.01 | 689 | 20900 (2017) | 170 (1981) | 2260 | 228 | 284 | 361 | 448 | 1070 | 2220 | 2610 | 5840 | 10000 |
| 2026-05-05 01:00 | 6.01 | 689 | 20900 (2017) | 170 (1981) | 2260 | 228 | 284 | 361 | 448 | 1070 | 2220 | 2610 | 5840 | 10000 |
| 2026-05-05 00:30 | 6.01 | 689 | 20900 (2017) | 170 (1981) | 2260 | 228 | 284 | 361 | 448 | 1070 | 2220 | 2610 | 5840 | 10000 |
| 2026-05-05 00:00 | 6.01 | 689 | 20900 (2017) | 170 (1981) | 2260 | 228 | 284 | 361 | 448 | 1070 | 2220 | 2610 | 5840 | 10000 |
| 2026-05-04 23:30 | 6.01 | 689 | 20900 (2017) | 170 (1981) | 2260 | 228 | 284 | 361 | 448 | 1070 | 2220 | 2610 | 5840 | 10000 |
| 2026-05-04 23:00 | 6.02 | 694 | 20900 (2017) | 170 (1981) | 2260 | 228 | 284 | 361 | 448 | 1070 | 2220 | 2610 | 5840 | 10000 |
| 2026-05-04 22:30 | 6.02 | 694 | 24800 (2013) | 174 (2000) | 2800 | 241 | 300 | 370 | 491 | 1210 | 2680 | 2980 | 7640 | 15700 |
| 2026-05-04 22:00 | 6.02 | 694 | 24800 (2013) | 174 (2000) | 2800 | 241 | 300 | 370 | 491 | 1210 | 2680 | 2980 | 7640 | 15700 |
| 2026-05-04 21:30 | 6.03 | 699 | 24800 (2013) | 174 (2000) | 2800 | 241 | 300 | 370 | 491 | 1210 | 2680 | 2980 | 7640 | 15700 |
| 2026-05-04 21:00 | 6.03 | 699 | 24800 (2013) | 174 (2000) | 2800 | 241 | 300 | 370 | 491 | 1210 | 2680 | 2980 | 7640 | 15700 |
| 2026-05-04 20:30 | 6.03 | 699 | 24800 (2013) | 174 (2000) | 2800 | 241 | 300 | 370 | 491 | 1210 | 2680 | 2980 | 7640 | 15700 |
| 2026-05-04 20:00 | 6.03 | 699 | 24800 (2013) | 174 (2000) | 2800 | 241 | 300 | 370 | 491 | 1210 | 2680 | 2980 | 7640 | 15700 |
| 2026-05-04 19:30 | 6.04 | 704 | 24800 (2013) | 174 (2000) | 2800 | 241 | 300 | 370 | 491 | 1210 | 2680 | 2980 | 7640 | 15700 |
| 2026-05-04 19:00 | 6.02 | 694 | 24800 (2013) | 174 (2000) | 2800 | 241 | 300 | 370 | 491 | 1210 | 2680 | 2980 | 7640 | 15700 |
| 2026-05-04 18:30 | 6.01 | 689 | 24800 (2013) | 174 (2000) | 2800 | 241 | 300 | 370 | 491 | 1210 | 2680 | 2980 | 7640 | 15700 |
| 2026-05-04 18:00 | 6.02 | 694 | 24800 (2013) | 174 (2000) | 2800 | 241 | 300 | 370 | 491 | 1210 | 2680 | 2980 | 7640 | 15700 |
| 2026-05-04 17:30 | 6.03 | 699 | 24800 (2013) | 174 (2000) | 2800 | 241 | 300 | 370 | 491 | 1210 | 2680 | 2980 | 7640 | 15700 |
| 2026-05-04 17:00 | 6.01 | 689 | 24800 (2013) | 174 (2000) | 2800 | 241 | 300 | 370 | 491 | 1210 | 2680 | 2980 | 7640 | 15700 |
| 2026-05-04 16:30 | 6.02 | 694 | 24800 (2013) | 174 (2000) | 2800 | 241 | 300 | 370 | 491 | 1210 | 2680 | 2980 | 7640 | 15700 |
| 2026-05-04 16:00 | 6.02 | 694 | 24800 (2013) | 174 (2000) | 2800 | 241 | 300 | 370 | 491 | 1210 | 2680 | 2980 | 7640 | 15700 |
| 2026-05-04 15:30 | 6.03 | 699 | 24800 (2013) | 174 (2000) | 2800 | 241 | 300 | 370 | 491 | 1210 | 2680 | 2980 | 7640 | 15700 |
| 2026-05-04 15:00 | 6.03 | 699 | 24800 (2013) | 174 (2000) | 2800 | 241 | 300 | 370 | 491 | 1210 | 2680 | 2980 | 7640 | 15700 |
| 2026-05-04 14:30 | 6.03 | 699 | 24800 (2013) | 174 (2000) | 2800 | 241 | 300 | 370 | 491 | 1210 | 2680 | 2980 | 7640 | 15700 |
| 2026-05-04 14:00 | 6.02 | 694 | 24800 (2013) | 174 (2000) | 2800 | 241 | 300 | 370 | 491 | 1210 | 2680 | 2980 | 7640 | 15700 |
| 2026-05-04 13:30 | 6.05 | 708 | 24800 (2013) | 174 (2000) | 2800 | 241 | 300 | 370 | 491 | 1210 | 2680 | 2980 | 7640 | 15700 |
| 2026-05-04 13:00 | 6.03 | 699 | 24800 (2013) | 174 (2000) | 2800 | 241 | 300 | 370 | 491 | 1210 | 2680 | 2980 | 7640 | 15700 |
| 2026-05-04 12:30 | 6.01 | 689 | 24800 (2013) | 174 (2000) | 2800 | 241 | 300 | 370 | 491 | 1210 | 2680 | 2980 | 7640 | 15700 |
| 2026-05-04 12:00 | 6.04 | 704 | 24800 (2013) | 174 (2000) | 2800 | 241 | 300 | 370 | 491 | 1210 | 2680 | 2980 | 7640 | 15700 |
| 2026-05-04 11:30 | 6.04 | 704 | 24800 (2013) | 174 (2000) | 2800 | 241 | 300 | 370 | 491 | 1210 | 2680 | 2980 | 7640 | 15700 |
| 2026-05-04 11:00 | 6.06 | 713 | 24800 (2013) | 174 (2000) | 2800 | 241 | 300 | 370 | 491 | 1210 | 2680 | 2980 | 7640 | 15700 |
| 2026-05-04 10:30 | 6.07 | 718 | 24800 (2013) | 174 (2000) | 2800 | 241 | 300 | 370 | 491 | 1210 | 2680 | 2980 | 7640 | 15700 |
| 2026-05-04 10:00 | 6.08 | 723 | 24800 (2013) | 174 (2000) | 2800 | 241 | 300 | 370 | 491 | 1210 | 2680 | 2980 | 7640 | 15700 |
| 2026-05-04 09:30 | 6.09 | 727 | 24800 (2013) | 174 (2000) | 2800 | 241 | 300 | 370 | 491 | 1210 | 2680 | 2980 | 7640 | 15700 |
| 2026-05-04 09:00 | 6.10 | 732 | 24800 (2013) | 174 (2000) | 2800 | 241 | 300 | 370 | 491 | 1210 | 2680 | 2980 | 7640 | 15700 |
| 2026-05-04 08:30 | 6.10 | 732 | 24800 (2013) | 174 (2000) | 2800 | 241 | 300 | 370 | 491 | 1210 | 2680 | 2980 | 7640 | 15700 |
| 2026-05-04 08:00 | 6.10 | 732 | 24800 (2013) | 174 (2000) | 2800 | 241 | 300 | 370 | 491 | 1210 | 2680 | 2980 | 7640 | 15700 |
| 2026-05-04 07:30 | 6.11 | 737 | 24800 (2013) | 174 (2000) | 2800 | 241 | 300 | 370 | 491 | 1210 | 2680 | 2980 | 7640 | 15700 |
| 2026-05-04 07:00 | 6.11 | 737 | 24800 (2013) | 174 (2000) | 2800 | 241 | 300 | 370 | 491 | 1210 | 2680 | 2980 | 7640 | 15700 |
| 2026-05-04 06:30 | 6.11 | 737 | 24800 (2013) | 174 (2000) | 2800 | 241 | 300 | 370 | 491 | 1210 | 2680 | 2980 | 7640 | 15700 |
| 2026-05-04 06:00 | 6.12 | 742 | 24800 (2013) | 174 (2000) | 2800 | 241 | 300 | 370 | 491 | 1210 | 2680 | 2980 | 7640 | 15700 |
| 2026-05-04 05:30 | 6.12 | 742 | 24800 (2013) | 174 (2000) | 2800 | 241 | 300 | 370 | 491 | 1210 | 2680 | 2980 | 7640 | 15700 |
| 2026-05-04 05:00 | 6.12 | 742 | 24800 (2013) | 174 (2000) | 2800 | 241 | 300 | 370 | 491 | 1210 | 2680 | 2980 | 7640 | 15700 |
| 2026-05-04 04:30 | 6.12 | 742 | 24800 (2013) | 174 (2000) | 2800 | 241 | 300 | 370 | 491 | 1210 | 2680 | 2980 | 7640 | 15700 |
| 2026-05-04 04:00 | 6.13 | 747 | 24800 (2013) | 174 (2000) | 2800 | 241 | 300 | 370 | 491 | 1210 | 2680 | 2980 | 7640 | 15700 |
| 2026-05-04 03:30 | 6.13 | 747 | 24800 (2013) | 174 (2000) | 2800 | 241 | 300 | 370 | 491 | 1210 | 2680 | 2980 | 7640 | 15700 |
| 2026-05-04 03:00 | 6.13 | 747 | 24800 (2013) | 174 (2000) | 2800 | 241 | 300 | 370 | 491 | 1210 | 2680 | 2980 | 7640 | 15700 |
| 2026-05-04 02:30 | 6.14 | 752 | 24800 (2013) | 174 (2000) | 2800 | 241 | 300 | 370 | 491 | 1210 | 2680 | 2980 | 7640 | 15700 |
| 2026-05-04 02:00 | 6.14 | 752 | 24800 (2013) | 174 (2000) | 2800 | 241 | 300 | 370 | 491 | 1210 | 2680 | 2980 | 7640 | 15700 |
| 2026-05-04 01:30 | 6.14 | 752 | 24800 (2013) | 174 (2000) | 2800 | 241 | 300 | 370 | 491 | 1210 | 2680 | 2980 | 7640 | 15700 |
| 2026-05-04 01:00 | 6.14 | 752 | 24800 (2013) | 174 (2000) | 2800 | 241 | 300 | 370 | 491 | 1210 | 2680 | 2980 | 7640 | 15700 |
| 2026-05-04 00:30 | 6.15 | 757 | 24800 (2013) | 174 (2000) | 2800 | 241 | 300 | 370 | 491 | 1210 | 2680 | 2980 | 7640 | 15700 |
| 2026-05-04 00:00 | 6.15 | 757 | 24800 (2013) | 174 (2000) | 2800 | 241 | 300 | 370 | 491 | 1210 | 2680 | 2980 | 7640 | 15700 |
| 2026-05-03 23:30 | 6.15 | 757 | 24800 (2013) | 174 (2000) | 2800 | 241 | 300 | 370 | 491 | 1210 | 2680 | 2980 | 7640 | 15700 |
| 2026-05-03 23:00 | 6.16 | 762 | 24800 (2013) | 174 (2000) | 2800 | 241 | 300 | 370 | 491 | 1210 | 2680 | 2980 | 7640 | 15700 |
A total of 155 rows are displayed for years 1922 through 2024.